createdAt,value
2019-03-04T00:03:00.397Z,76.65
2019-03-04T00:06:24.854Z,76.51
2019-03-04T00:09:31.324Z,76.17
2019-03-04T00:12:38.512Z,75.76
2019-03-04T00:15:44.737Z,75.78
2019-03-04T00:18:53.057Z,75.52
2019-03-04T00:22:00.246Z,75.26
2019-03-04T00:25:06.994Z,76.20
2019-03-04T00:28:13.353Z,75.90
2019-03-04T00:31:19.824Z,76.03
2019-03-04T00:34:26.453Z,76.25
2019-03-04T00:37:33.352Z,76.38
2019-03-04T00:40:40.435Z,76.37
2019-03-04T00:43:46.928Z,76.62
2019-03-04T00:46:53.501Z,76.71
2019-03-04T00:50:00.326Z,76.78
2019-03-04T00:53:06.922Z,76.75
2019-03-04T00:56:13.512Z,76.33
2019-03-04T00:59:20.309Z,76.08
2019-03-04T01:02:26.860Z,75.32
2019-03-04T01:05:34.124Z,75.35
2019-03-04T01:08:40.709Z,74.79
2019-03-04T01:11:48.614Z,74.22
2019-03-04T01:14:55.184Z,73.97
2019-03-04T01:18:01.454Z,73.68
2019-03-04T01:21:08.536Z,73.11
2019-03-04T01:24:15.137Z,73.37
2019-03-04T01:27:21.660Z,73.07
2019-03-04T01:30:28.242Z,73.30
2019-03-04T01:33:34.589Z,73.16
2019-03-04T01:36:41.491Z,73.19
2019-03-04T01:39:48.078Z,72.01
2019-03-04T01:42:54.310Z,72.27
2019-03-04T01:46:01.089Z,72.73
2019-03-04T01:49:07.514Z,71.85
2019-03-04T01:52:13.785Z,72.30
2019-03-04T01:55:20.297Z,72.01
2019-03-04T01:58:26.767Z,71.09
2019-03-04T02:01:33.627Z,72.63
2019-03-04T02:04:40.224Z,72.10
2019-03-04T02:07:46.637Z,72.42
2019-03-04T02:10:53.207Z,71.11
2019-03-04T02:14:00.797Z,72.05
2019-03-04T02:17:07.324Z,72.45
2019-03-04T02:20:14.870Z,71.79
2019-03-04T02:23:21.337Z,72.40
2019-03-04T02:26:32.944Z,72.95
2019-03-04T02:29:39.535Z,74.28
2019-03-04T02:32:46.296Z,74.82
2019-03-04T02:35:52.987Z,74.74
2019-03-04T02:38:59.571Z,72.60
2019-03-04T02:42:06.019Z,73.21
2019-03-04T02:45:14.286Z,71.74
2019-03-04T02:48:20.577Z,72.66
2019-03-04T02:51:26.863Z,72.72
2019-03-04T02:54:33.756Z,73.41
2019-03-04T02:57:40.413Z,74.49
2019-03-04T03:00:47.049Z,73.26
2019-03-04T03:03:53.363Z,71.88
2019-03-04T03:06:59.841Z,71.45
2019-03-04T03:10:08.091Z,71.79
2019-03-04T03:13:14.552Z,71.06
2019-03-04T03:16:21.301Z,69.99
2019-03-04T03:19:27.700Z,69.83
2019-03-04T03:22:34.299Z,69.53
2019-03-04T03:25:41.972Z,68.97
2019-03-04T03:28:48.778Z,68.92
2019-03-04T03:31:55.010Z,68.83
2019-03-04T03:35:01.486Z,68.63
2019-03-04T03:38:08.697Z,68.61
2019-03-04T03:41:15.449Z,68.63
2019-03-04T03:44:22.430Z,68.73
2019-03-04T03:47:29.109Z,68.14
2019-03-04T03:50:35.765Z,68.41
2019-03-04T03:53:42.137Z,68.18
2019-03-04T03:56:48.712Z,67.74
2019-03-04T03:59:55.226Z,67.84
2019-03-04T04:03:01.680Z,67.99
2019-03-04T04:06:07.923Z,68.04
2019-03-04T04:09:14.314Z,68.71
2019-03-04T04:12:21.894Z,69.33
2019-03-04T04:15:28.257Z,69.15
2019-03-04T04:18:34.552Z,70.56
2019-03-04T04:21:40.992Z,70.54
2019-03-04T04:24:47.199Z,70.11
2019-03-04T04:27:53.680Z,69.98
2019-03-04T04:31:00.203Z,69.53
2019-03-04T04:34:06.999Z,69.18
2019-03-04T04:37:13.697Z,68.91
2019-03-04T04:40:19.816Z,69.24
2019-03-04T04:43:26.384Z,68.56
2019-03-04T04:47:06.874Z,68.75
2019-03-04T04:50:14.065Z,68.69
2019-03-04T04:53:21.285Z,68.98
2019-03-04T04:56:28.107Z,68.87
2019-03-04T04:59:35.049Z,68.81
2019-03-04T05:02:41.721Z,69.34
2019-03-04T05:05:48.341Z,69.07
2019-03-04T05:08:55.033Z,69.02
2019-03-04T05:12:01.992Z,68.78
2019-03-04T05:15:09.665Z,68.77
2019-03-04T05:18:16.231Z,68.91
2019-03-04T05:21:22.989Z,69.00
2019-03-04T05:24:29.817Z,69.38
2019-03-04T05:27:37.531Z,69.85
2019-03-04T05:30:44.094Z,70.75
2019-03-04T05:33:50.809Z,70.22
2019-03-04T05:36:57.713Z,71.55
2019-03-04T05:40:04.758Z,72.84
2019-03-04T05:43:11.712Z,74.71
2019-03-04T05:46:18.374Z,76.04
2019-03-04T05:49:24.864Z,76.60
2019-03-04T05:52:31.419Z,76.74
2019-03-04T05:55:37.724Z,76.40
2019-03-04T05:58:44.365Z,76.55
2019-03-04T06:02:03.508Z,76.18
2019-03-04T06:05:10.243Z,75.75
2019-03-04T06:08:16.957Z,75.00
2019-03-04T06:11:23.751Z,73.69
2019-03-04T06:14:30.398Z,73.06
2019-03-04T06:17:37.729Z,73.57
2019-03-04T06:20:44.315Z,72.67
2019-03-04T06:23:51.020Z,72.44
2019-03-04T06:26:57.395Z,70.84
2019-03-04T06:30:04.151Z,70.54
2019-03-04T06:33:10.719Z,69.39
2019-03-04T06:36:17.694Z,68.38
2019-03-04T06:39:24.302Z,68.37
2019-03-04T06:42:30.820Z,69.09
2019-03-04T06:45:37.508Z,68.70
2019-03-04T06:48:43.956Z,68.76
2019-03-04T06:51:51.446Z,68.74
2019-03-04T06:55:46.808Z,69.59
2019-03-04T06:58:57.905Z,69.50
2019-03-04T07:02:09.675Z,69.24
2019-03-04T07:05:45.721Z,69.52
2019-03-04T07:09:13.928Z,69.88
2019-03-04T07:12:21.458Z,68.96
2019-03-04T07:15:28.197Z,68.11
2019-03-04T07:18:34.041Z,68.44
2019-03-04T07:21:40.596Z,67.75
2019-03-04T07:24:47.335Z,67.73
2019-03-04T07:27:53.030Z,67.24
2019-03-04T07:30:58.920Z,66.61
2019-03-04T07:34:05.242Z,65.86
2019-03-04T07:37:11.146Z,65.11
2019-03-04T07:40:17.744Z,65.07
2019-03-04T07:43:23.542Z,64.71
2019-03-04T07:46:29.769Z,64.60
2019-03-04T07:49:35.672Z,64.33
2019-03-04T07:52:41.236Z,64.27
2019-03-04T07:55:47.197Z,63.55
2019-03-04T07:58:53.370Z,63.45
2019-03-04T08:01:59.437Z,64.09
2019-03-04T08:05:05.993Z,64.90
2019-03-04T08:08:12.294Z,67.35
2019-03-04T08:11:49.942Z,69.33
2019-03-04T08:14:57.126Z,71.21
2019-03-04T08:18:03.607Z,71.10
2019-03-04T08:21:10.394Z,71.10
2019-03-04T08:24:17.144Z,71.45
2019-03-04T08:27:23.992Z,69.69
2019-03-04T08:30:29.822Z,69.19
2019-03-04T08:33:35.825Z,70.02
2019-03-04T08:36:41.873Z,68.95
2019-03-04T08:39:48.249Z,68.92
2019-03-04T08:42:54.751Z,69.42
2019-03-04T08:46:01.185Z,67.14
2019-03-04T08:49:06.993Z,68.55
2019-03-04T08:52:12.969Z,67.07
2019-03-04T08:55:19.320Z,66.58
2019-03-04T08:58:25.054Z,65.35
2019-03-04T09:01:31.884Z,65.37
2019-03-04T09:04:37.884Z,64.65
2019-03-04T09:07:43.952Z,64.85
2019-03-04T09:10:50.063Z,63.25
2019-03-04T09:13:56.491Z,62.29
2019-03-04T09:17:02.425Z,62.08
2019-03-04T09:20:09.035Z,63.76
2019-03-04T09:23:15.177Z,61.80
2019-03-04T09:26:21.378Z,61.84
2019-03-04T09:29:28.584Z,61.68
2019-03-04T09:32:34.360Z,59.37
2019-03-04T09:35:40.664Z,60.09
2019-03-04T09:38:46.612Z,58.45
2019-03-04T09:41:54.585Z,58.25
2019-03-04T09:45:00.327Z,56.47
2019-03-04T09:48:06.173Z,54.90
2019-03-04T09:51:13.052Z,57.31
2019-03-04T09:54:18.907Z,57.61
2019-03-04T09:57:24.761Z,55.34
2019-03-04T10:00:41.967Z,54.57
2019-03-04T10:04:31.699Z,54.75
2019-03-04T10:08:00.816Z,55.88
2019-03-04T10:11:21.727Z,55.22
2019-03-04T10:15:08.036Z,54.25
2019-03-04T10:18:38.922Z,54.53
2019-03-04T10:21:53.242Z,54.40
2019-03-04T10:25:45.156Z,54.69
2019-03-04T10:29:30.577Z,54.26
2019-03-04T10:33:00.923Z,59.09
2019-03-04T10:36:56.279Z,62.58
2019-03-04T10:40:34.225Z,64.95
2019-03-04T10:43:51.988Z,63.88
2019-03-04T10:46:59.399Z,63.16
2019-03-04T10:50:05.660Z,61.50
2019-03-04T10:53:12.047Z,60.65
2019-03-04T10:56:17.712Z,61.19
2019-03-04T10:59:23.545Z,62.54
2019-03-04T11:02:29.475Z,61.58
2019-03-04T11:05:35.612Z,61.82
2019-03-04T11:08:41.599Z,62.34
2019-03-04T11:11:49.323Z,60.35
2019-03-04T11:14:54.963Z,57.77
2019-03-04T11:18:02.153Z,58.46
2019-03-04T11:21:07.847Z,57.47
2019-03-04T11:24:14.424Z,57.52
2019-03-04T11:27:20.561Z,56.13
2019-03-04T11:30:29.702Z,56.36
2019-03-04T11:33:35.849Z,56.05
2019-03-04T11:36:42.222Z,56.33
2019-03-04T11:40:10.957Z,57.66
2019-03-04T11:43:16.556Z,56.22
2019-03-04T11:46:25.040Z,55.47
2019-03-04T11:49:31.688Z,57.05
2019-03-04T11:52:37.813Z,56.93
2019-03-04T11:55:43.995Z,55.49
2019-03-04T11:58:49.435Z,56.02
2019-03-04T12:01:56.716Z,54.70
2019-03-04T12:05:03.806Z,54.21
2019-03-04T12:08:09.707Z,55.61
2019-03-04T12:11:19.721Z,55.45
2019-03-04T12:14:25.927Z,56.51
2019-03-04T12:17:32.311Z,55.78
2019-03-04T12:20:38.272Z,57.29
2019-03-04T12:23:44.138Z,57.28
2019-03-04T12:26:51.083Z,56.51
2019-03-04T12:29:56.972Z,56.59
2019-03-04T12:33:04.359Z,56.16
2019-03-04T12:36:10.514Z,56.44
2019-03-04T12:39:16.998Z,56.06
2019-03-04T12:42:23.029Z,55.78
2019-03-04T12:45:34.484Z,54.97
2019-03-04T12:48:37.570Z,55.78
2019-03-04T12:51:45.306Z,57.44
2019-03-04T12:54:51.752Z,60.18
2019-03-04T12:57:58.456Z,62.23
2019-03-04T13:01:04.563Z,63.05
2019-03-04T13:04:10.913Z,61.66
2019-03-04T13:07:16.877Z,60.96
2019-03-04T13:10:23.510Z,62.03
2019-03-04T13:13:30.420Z,59.62
2019-03-04T13:16:36.639Z,61.15
2019-03-04T13:19:43.019Z,62.16
2019-03-04T13:22:49.452Z,60.64
2019-03-04T13:25:55.400Z,60.08
2019-03-04T13:29:01.032Z,61.05
2019-03-04T13:32:07.721Z,61.53
2019-03-04T13:35:23.989Z,61.76
2019-03-04T13:38:22.942Z,61.10
2019-03-04T13:41:29.628Z,60.96
2019-03-04T13:44:35.646Z,62.15
2019-03-04T13:47:41.930Z,62.58
2019-03-04T13:50:48.274Z,62.84
2019-03-04T13:53:54.543Z,62.90
2019-03-04T13:57:00.539Z,62.22
2019-03-04T14:00:08.353Z,62.62
2019-03-04T14:03:14.619Z,61.51
2019-03-04T14:06:20.415Z,63.54
2019-03-04T14:09:26.490Z,63.04
2019-03-04T14:12:33.902Z,63.57
2019-03-04T14:15:40.490Z,63.13
2019-03-04T14:18:46.378Z,63.35
2019-03-04T14:21:52.461Z,63.77
2019-03-04T14:24:58.168Z,64.67
2019-03-04T14:28:04.528Z,63.93
2019-03-04T14:31:10.447Z,62.42
2019-03-04T14:34:17.394Z,62.47
2019-03-04T14:37:23.311Z,62.38
2019-03-04T14:40:29.344Z,64.59
2019-03-04T14:43:36.013Z,65.92
2019-03-04T14:46:42.250Z,69.80
2019-03-04T14:49:48.534Z,73.67
2019-03-04T14:52:58.180Z,75.12
2019-03-04T14:56:04.838Z,76.27
2019-03-04T14:59:11.637Z,74.33
2019-03-04T15:02:18.020Z,75.12
2019-03-04T15:05:24.611Z,77.81
2019-03-04T15:08:31.484Z,79.30
2019-03-04T15:11:39.042Z,78.61
2019-03-04T15:14:45.553Z,78.07
2019-03-04T15:17:51.926Z,78.28
2019-03-04T15:20:58.663Z,78.81
2019-03-04T15:24:05.213Z,77.57
2019-03-04T15:27:11.741Z,77.00
2019-03-04T15:30:20.443Z,76.69
2019-03-04T15:33:27.787Z,77.71
2019-03-04T15:36:34.702Z,77.47
2019-03-04T15:39:41.972Z,77.85
2019-03-04T15:42:47.814Z,78.41
2019-03-04T15:45:55.776Z,78.44
2019-03-04T15:49:02.487Z,78.50
2019-03-04T15:52:09.268Z,79.33
2019-03-04T15:55:15.937Z,79.90
2019-03-04T15:58:23.178Z,80.79
2019-03-04T16:01:29.985Z,80.10
2019-03-04T16:04:36.941Z,81.38
2019-03-04T16:07:45.292Z,79.74
2019-03-04T16:10:53.316Z,79.79
2019-03-04T16:14:03.626Z,79.52
2019-03-04T16:17:10.407Z,80.00
2019-03-04T16:20:18.924Z,81.53
2019-03-04T16:23:25.680Z,82.44
2019-03-04T16:26:33.886Z,80.78
2019-03-04T16:29:40.746Z,81.28
2019-03-04T16:32:49.024Z,82.11
2019-03-04T16:35:55.669Z,81.88
2019-03-04T16:39:04.756Z,82.06
2019-03-04T16:42:12.223Z,82.50
2019-03-04T16:45:18.581Z,82.51
2019-03-04T16:48:24.562Z,82.58
2019-03-04T16:51:31.584Z,81.77
2019-03-04T16:54:39.627Z,82.21
2019-03-04T16:57:46.001Z,81.15
2019-03-04T17:00:52.933Z,79.93
2019-03-04T17:03:59.055Z,81.49
2019-03-04T17:07:06.446Z,82.76
2019-03-04T17:10:13.405Z,81.59
2019-03-04T17:13:19.838Z,80.80
2019-03-04T17:16:27.412Z,81.41
2019-03-04T17:19:33.650Z,80.49
2019-03-04T17:22:40.405Z,80.12
2019-03-04T17:25:48.718Z,80.99
2019-03-04T17:28:54.881Z,79.43
2019-03-04T17:32:03.610Z,79.91
2019-03-04T17:35:10.587Z,80.30
2019-03-04T17:38:17.030Z,81.11
2019-03-04T17:41:24.991Z,80.34
2019-03-04T17:44:33.100Z,80.46
2019-03-04T17:47:39.809Z,80.15
2019-03-04T17:50:46.296Z,79.86
2019-03-04T17:53:52.459Z,79.31
2019-03-04T17:56:58.677Z,81.39
2019-03-04T18:00:07.470Z,78.92
2019-03-04T18:03:13.489Z,79.83
2019-03-04T18:06:19.606Z,80.09
2019-03-04T18:09:25.719Z,80.49
2019-03-04T18:12:37.752Z,79.85
2019-03-04T18:15:44.341Z,79.05
2019-03-04T18:18:50.430Z,79.08
2019-03-04T18:21:57.361Z,78.35
2019-03-04T18:25:03.461Z,79.02
2019-03-04T18:28:36.844Z,78.24
2019-03-04T18:31:50.899Z,78.08
2019-03-04T18:35:26.406Z,78.93
2019-03-04T18:39:25.124Z,78.65
2019-03-04T18:43:05.666Z,78.82
2019-03-04T18:46:44.687Z,78.04
2019-03-04T18:49:51.860Z,79.27
2019-03-04T18:52:58.257Z,78.07
2019-03-04T18:56:06.179Z,77.85
2019-03-04T18:59:12.742Z,77.97
2019-03-04T19:02:19.088Z,77.62
2019-03-04T19:05:26.091Z,78.68
2019-03-04T19:08:32.351Z,77.74
2019-03-04T19:11:39.322Z,77.43
2019-03-04T19:14:46.176Z,77.31
2019-03-04T19:17:52.758Z,77.39
2019-03-04T19:20:59.236Z,77.57
2019-03-04T19:24:05.534Z,77.03
2019-03-04T19:27:12.024Z,76.78
2019-03-04T19:30:18.353Z,75.91
2019-03-04T19:33:24.228Z,76.67
2019-03-04T19:36:33.498Z,77.30
2019-03-04T19:39:40.075Z,77.38
2019-03-04T19:42:46.534Z,76.70
2019-03-04T19:45:53.527Z,77.28
2019-03-04T19:48:59.746Z,76.55
2019-03-04T19:52:05.261Z,76.74
2019-03-04T19:55:12.826Z,75.80
2019-03-04T19:58:19.675Z,76.00
2019-03-04T20:01:27.101Z,75.70
2019-03-04T20:04:34.695Z,75.59
2019-03-04T20:07:40.999Z,75.62
2019-03-04T20:10:47.171Z,76.00
2019-03-04T20:13:53.730Z,75.74
2019-03-04T20:17:01.649Z,74.92
2019-03-04T20:20:10.375Z,75.27
2019-03-04T20:23:16.393Z,75.47
2019-03-04T20:26:22.419Z,75.14
2019-03-04T20:29:28.367Z,76.24
2019-03-04T20:32:37.643Z,75.45
2019-03-04T20:35:45.875Z,74.51
2019-03-04T20:38:52.485Z,75.60
2019-03-04T20:42:00.710Z,75.91
2019-03-04T20:45:08.349Z,75.76
2019-03-04T20:48:14.893Z,75.52
2019-03-04T20:51:21.772Z,75.61
2019-03-04T20:54:30.519Z,74.37
2019-03-04T20:57:37.554Z,76.02
2019-03-04T21:00:45.194Z,75.49
2019-03-04T21:03:51.225Z,75.84
2019-03-04T21:06:57.449Z,75.24
2019-03-04T21:10:03.709Z,74.50
2019-03-04T21:13:16.217Z,75.07
2019-03-04T21:16:24.264Z,74.63
2019-03-04T21:19:30.498Z,74.50
2019-03-04T21:22:36.151Z,74.45
2019-03-04T21:25:50.998Z,75.11
2019-03-04T21:29:15.329Z,75.78
2019-03-04T21:32:36.834Z,75.20
2019-03-04T21:36:38.177Z,75.05
2019-03-04T21:39:48.282Z,74.84
2019-03-04T21:43:01.293Z,75.09
2019-03-04T21:46:45.822Z,75.38
2019-03-04T21:49:55.045Z,75.20
2019-03-04T21:53:08.933Z,75.65
2019-03-04T21:56:54.131Z,75.62
2019-03-04T22:00:00.460Z,75.67
2019-03-04T22:03:20.890Z,75.92
2019-03-04T22:06:27.004Z,75.86
2019-03-04T22:09:32.868Z,75.99
2019-03-04T22:12:39.537Z,75.48
2019-03-04T22:15:46.303Z,76.12
2019-03-04T22:18:52.417Z,75.56
2019-03-04T22:21:58.432Z,75.56
2019-03-04T22:25:04.448Z,75.90
2019-03-04T22:28:11.748Z,76.05
2019-03-04T22:31:17.587Z,75.75
2019-03-04T22:34:23.796Z,75.58
2019-03-04T22:37:29.859Z,75.81
2019-03-04T22:40:35.695Z,75.77
2019-03-04T22:43:41.636Z,76.43
2019-03-04T22:46:47.525Z,75.82
2019-03-04T22:49:54.374Z,75.25
2019-03-04T22:53:00.254Z,75.51
2019-03-04T22:56:06.419Z,75.02
2019-03-04T22:59:12.720Z,75.59
2019-03-04T23:02:20.087Z,75.28
2019-03-04T23:05:26.329Z,75.21
2019-03-04T23:08:32.129Z,75.78
2019-03-04T23:11:39.413Z,75.24
2019-03-04T23:14:45.807Z,75.03
2019-03-04T23:17:51.949Z,75.77
2019-03-04T23:20:57.743Z,75.67
2019-03-04T23:24:03.657Z,74.98
2019-03-04T23:27:09.493Z,75.60
2019-03-04T23:30:15.856Z,75.48
2019-03-04T23:33:21.332Z,74.54
2019-03-04T23:36:27.585Z,73.97
2019-03-04T23:39:35.822Z,75.00
2019-03-04T23:42:41.744Z,74.52
2019-03-04T23:45:49.027Z,74.01
2019-03-04T23:48:55.460Z,73.62
2019-03-04T23:52:02.179Z,74.55
2019-03-04T23:55:07.960Z,73.91
2019-03-04T23:58:13.733Z,73.95
